This is the latest recevied weather packets stored in our database for station/object KJ7IVE-13. If no packets are shown the sender has not sent any weather packets the latest 1 day(s).
| Time | Temp. | Humidity | Pressure | Rain* | Wind** | Luminosity | Snow |
|---|---|---|---|---|---|---|---|
| 1778048300 | 12.78° C | 10% | 1011.9 hPa | 0 mm | 1.34 m/s, 157° | 0 W/m² | - |
| 1778047997 | 12.78° C | 10% | 1012.2 hPa | 0 mm | 2.24 m/s, 186° | 0 W/m² | - |
| 1778047695 | 12.78° C | 10% | 1011.9 hPa | 0 mm | 1.34 m/s, 171° | 0 W/m² | - |
| 1778047393 | 12.78° C | 10% | 1011.9 hPa | 0 mm | 3.13 m/s, 171° | 0 W/m² | - |
| 1778047089 | 13.33° C | 10% | 1012.3 hPa | 0 mm | 0.89 m/s, 190° | 0 W/m² | - |
| 1778046786 | 13.33° C | 10% | 1012.2 hPa | 0 mm | 0.89 m/s, 175° | 0 W/m² | - |
| 1778046483 | 13.33° C | 10% | 1011.8 hPa | 0 mm | 0.89 m/s, 166° | 0 W/m² | - |
| 1778046179 | 13.33° C | 10% | 1011.9 hPa | 0 mm | 1.34 m/s, 149° | 0 W/m² | - |
| 1778045875 | 13.89° C | 10% | 1011.9 hPa | 0 mm | 0.45 m/s, 182° | 0 W/m² | - |
| 1778045575 | 13.89° C | 10% | 1012.2 hPa | 0 mm | 0.45 m/s, 190° | 0 W/m² | - |
| 1778045272 | 13.89° C | 10% | 1011.9 hPa | 0 mm | 1.79 m/s, 181° | 0 W/m² | - |
| 1778044971 | 13.89° C | 10% | 1012 hPa | 0 mm | 0.45 m/s, 188° | 0 W/m² | - |
| 1778044668 | 13.89° C | 10% | 1011.8 hPa | 0 mm | 0 m/s | 0 W/m² | - |
| 1778044363 | 13.89° C | 10% | 1011.8 hPa | 0 mm | 0.89 m/s, 167° | 0 W/m² | - |
| 1778044061 | 13.89° C | 10% | 1011.6 hPa | 0 mm | 1.79 m/s, 141° | 0 W/m² | - |
| 1778043759 | 13.89° C | 10% | 1011.7 hPa | 0 mm | 0.89 m/s, 166° | 0 W/m² | - |
| 1778043455 | 13.89° C | 10% | 1011.9 hPa | 0 mm | 0.45 m/s, 204° | 0 W/m² | - |
| 1778043152 | 13.89° C | 10% | 1011.5 hPa | 0 mm | 0 m/s | 0 W/m² | - |
| 1778042849 | 13.89° C | 10% | 1011.6 hPa | 0 mm | 0 m/s | 0 W/m² | - |
| 1778042547 | 13.89° C | 10% | 1011.4 hPa | 0 mm | 0.89 m/s, 156° | 0 W/m² | - |
| 1778042244 | 14.44° C | 10% | 1011.6 hPa | 0 mm | 0.89 m/s, 152° | 0 W/m² | - |
| 1778041941 | 13.89° C | 10% | 1011.8 hPa | 0 mm | 1.34 m/s, 122° | 0 W/m² | - |
| 1778041641 | 14.44° C | 10% | 1011.5 hPa | 0 mm | 1.34 m/s, 129° | 0 W/m² | - |
| 1778041339 | 13.89° C | 10% | 1011.3 hPa | 0 mm | 1.34 m/s, 142° | 0 W/m² | - |
| 1778041037 | 14.44° C | 10% | 1011.6 hPa | 0 mm | 0.45 m/s, 146° | 0 W/m² | - |
* Rain latest hour (hover to see other rain measurements)
** Current wind speed in m/s (hover to see current wind gust speed)